sensor_id;sensor_type;location;lat;lon;timestamp;P1;durP1;ratioP1;P2;durP2;ratioP2
20711;SDS011;10517;50.742;4.224;2023-07-24T00:01:56;11.27;;;8.57;;
20711;SDS011;10517;50.742;4.224;2023-07-24T00:04:22;9.18;;;8.10;;
20711;SDS011;10517;50.742;4.224;2023-07-24T00:06:47;12.73;;;8.80;;
20711;SDS011;10517;50.742;4.224;2023-07-24T00:09:13;12.13;;;8.75;;
20711;SDS011;10517;50.742;4.224;2023-07-24T00:11:38;16.23;;;8.65;;
20711;SDS011;10517;50.742;4.224;2023-07-24T00:14:04;10.38;;;8.30;;
20711;SDS011;10517;50.742;4.224;2023-07-24T00:16:29;11.30;;;8.45;;
20711;SDS011;10517;50.742;4.224;2023-07-24T00:18:55;13.50;;;7.78;;
20711;SDS011;10517;50.742;4.224;2023-07-24T00:21:20;11.75;;;7.60;;
20711;SDS011;10517;50.742;4.224;2023-07-24T00:23:46;10.80;;;8.13;;
20711;SDS011;10517;50.742;4.224;2023-07-24T00:26:12;10.52;;;7.35;;
20711;SDS011;10517;50.742;4.224;2023-07-24T00:28:37;13.20;;;7.40;;
20711;SDS011;10517;50.742;4.224;2023-07-24T00:31:03;12.98;;;7.07;;
20711;SDS011;10517;50.742;4.224;2023-07-24T00:33:28;13.50;;;8.02;;
20711;SDS011;10517;50.742;4.224;2023-07-24T00:35:57;9.05;;;7.80;;
20711;SDS011;10517;50.742;4.224;2023-07-24T00:38:23;12.68;;;7.95;;
20711;SDS011;10517;50.742;4.224;2023-07-24T00:40:49;8.27;;;7.10;;
20711;SDS011;10517;50.742;4.224;2023-07-24T00:43:15;13.82;;;8.82;;
20711;SDS011;10517;50.742;4.224;2023-07-24T00:45:40;16.77;;;7.90;;
20711;SDS011;10517;50.742;4.224;2023-07-24T00:48:07;9.13;;;8.05;;
20711;SDS011;10517;50.742;4.224;2023-07-24T00:50:32;7.90;;;7.10;;
20711;SDS011;10517;50.742;4.224;2023-07-24T00:52:58;8.38;;;7.55;;
20711;SDS011;10517;50.742;4.224;2023-07-24T00:55:24;13.48;;;6.70;;
20711;SDS011;10517;50.742;4.224;2023-07-24T00:57:50;10.07;;;7.28;;
20711;SDS011;10517;50.742;4.224;2023-07-24T01:00:16;16.25;;;6.68;;
20711;SDS011;10517;50.742;4.224;2023-07-24T01:02:42;8.70;;;6.70;;
20711;SDS011;10517;50.742;4.224;2023-07-24T01:05:08;6.80;;;6.20;;
20711;SDS011;10517;50.742;4.224;2023-07-24T01:07:35;12.32;;;6.90;;
20711;SDS011;10517;50.742;4.224;2023-07-24T01:10:02;10.85;;;6.80;;
20711;SDS011;10517;50.742;4.224;2023-07-24T01:12:31;11.35;;;6.90;;
20711;SDS011;10517;50.742;4.224;2023-07-24T01:15:26;12.18;;;7.55;;
20711;SDS011;10517;50.742;4.224;2023-07-24T01:17:57;11.23;;;6.70;;
20711;SDS011;10517;50.742;4.224;2023-07-24T01:20:46;10.35;;;5.82;;
20711;SDS011;10517;50.742;4.224;2023-07-24T01:26:09;9.45;;;6.80;;
20711;SDS011;10517;50.742;4.224;2023-07-24T01:28:35;11.13;;;6.50;;
20711;SDS011;10517;50.742;4.224;2023-07-24T01:31:01;8.93;;;6.68;;
20711;SDS011;10517;50.742;4.224;2023-07-24T01:33:27;10.45;;;6.82;;
20711;SDS011;10517;50.742;4.224;2023-07-24T01:35:57;7.03;;;6.38;;
20711;SDS011;10517;50.742;4.224;2023-07-24T01:38:24;10.90;;;7.10;;
20711;SDS011;10517;50.742;4.224;2023-07-24T01:40:51;9.05;;;6.63;;
20711;SDS011;10517;50.742;4.224;2023-07-24T01:43:18;12.95;;;7.18;;
20711;SDS011;10517;50.742;4.224;2023-07-24T01:45:43;7.78;;;6.32;;
20711;SDS011;10517;50.742;4.224;2023-07-24T01:48:09;6.68;;;6.07;;
20711;SDS011;10517;50.742;4.224;2023-07-24T01:50:35;6.45;;;5.68;;
20711;SDS011;10517;50.742;4.224;2023-07-24T01:53:00;5.50;;;5.00;;
20711;SDS011;10517;50.742;4.224;2023-07-24T01:55:26;5.40;;;4.90;;
20711;SDS011;10517;50.742;4.224;2023-07-24T01:57:51;8.93;;;4.90;;
20711;SDS011;10517;50.742;4.224;2023-07-24T02:00:17;7.53;;;5.18;;
20711;SDS011;10517;50.742;4.224;2023-07-24T02:02:42;5.43;;;4.90;;
20711;SDS011;10517;50.742;4.224;2023-07-24T02:05:08;8.75;;;4.32;;
20711;SDS011;10517;50.742;4.224;2023-07-24T02:07:34;8.20;;;4.85;;
20711;SDS011;10517;50.742;4.224;2023-07-24T02:09:59;5.03;;;4.22;;
20711;SDS011;10517;50.742;4.224;2023-07-24T02:12:25;5.22;;;4.88;;
20711;SDS011;10517;50.742;4.224;2023-07-24T02:14:50;4.97;;;3.78;;
20711;SDS011;10517;50.742;4.224;2023-07-24T02:17:17;5.47;;;4.95;;
20711;SDS011;10517;50.742;4.224;2023-07-24T02:19:43;4.18;;;3.88;;
20711;SDS011;10517;50.742;4.224;2023-07-24T02:22:09;4.28;;;3.97;;
20711;SDS011;10517;50.742;4.224;2023-07-24T02:24:35;6.13;;;4.50;;
20711;SDS011;10517;50.742;4.224;2023-07-24T02:27:00;8.80;;;5.35;;
20711;SDS011;10517;50.742;4.224;2023-07-24T02:29:26;5.32;;;4.85;;
20711;SDS011;10517;50.742;4.224;2023-07-24T02:31:55;6.47;;;4.68;;
20711;SDS011;10517;50.742;4.224;2023-07-24T02:34:22;5.28;;;4.97;;
20711;SDS011;10517;50.742;4.224;2023-07-24T02:36:51;7.13;;;4.75;;
20711;SDS011;10517;50.742;4.224;2023-07-24T02:39:17;5.28;;;4.72;;
20711;SDS011;10517;50.742;4.224;2023-07-24T02:41:42;3.85;;;3.45;;
20711;SDS011;10517;50.742;4.224;2023-07-24T02:44:08;8.00;;;3.78;;
20711;SDS011;10517;50.742;4.224;2023-07-24T02:46:33;3.80;;;3.60;;
20711;SDS011;10517;50.742;4.224;2023-07-24T02:48:59;4.65;;;4.32;;
20711;SDS011;10517;50.742;4.224;2023-07-24T02:51:25;4.40;;;4.20;;
20711;SDS011;10517;50.742;4.224;2023-07-24T02:53:50;5.45;;;4.35;;
20711;SDS011;10517;50.742;4.224;2023-07-24T02:56:17;4.55;;;3.90;;
20711;SDS011;10517;50.742;4.224;2023-07-24T02:58:43;3.90;;;3.60;;
20711;SDS011;10517;50.742;4.224;2023-07-24T03:01:08;4.38;;;4.07;;
20711;SDS011;10517;50.742;4.224;2023-07-24T03:03:35;3.67;;;3.47;;
20711;SDS011;10517;50.742;4.224;2023-07-24T03:06:01;3.88;;;3.58;;
20711;SDS011;10517;50.742;4.224;2023-07-24T03:08:27;3.55;;;3.35;;
20711;SDS011;10517;50.742;4.224;2023-07-24T03:10:52;3.95;;;3.75;;
20711;SDS011;10517;50.742;4.224;2023-07-24T03:13:18;4.20;;;3.70;;
20711;SDS011;10517;50.742;4.224;2023-07-24T03:15:50;3.97;;;3.65;;
20711;SDS011;10517;50.742;4.224;2023-07-24T03:18:19;3.70;;;3.50;;
20711;SDS011;10517;50.742;4.224;2023-07-24T03:20:45;3.85;;;3.55;;
20711;SDS011;10517;50.742;4.224;2023-07-24T03:23:11;2.92;;;2.78;;
20711;SDS011;10517;50.742;4.224;2023-07-24T03:25:36;3.90;;;3.50;;
20711;SDS011;10517;50.742;4.224;2023-07-24T03:28:02;4.63;;;3.58;;
20711;SDS011;10517;50.742;4.224;2023-07-24T03:30:27;4.80;;;3.00;;
20711;SDS011;10517;50.742;4.224;2023-07-24T03:32:53;5.45;;;3.83;;
20711;SDS011;10517;50.742;4.224;2023-07-24T03:35:18;4.22;;;3.90;;
20711;SDS011;10517;50.742;4.224;2023-07-24T03:37:44;3.70;;;3.50;;
20711;SDS011;10517;50.742;4.224;2023-07-24T03:40:10;7.13;;;4.32;;
20711;SDS011;10517;50.742;4.224;2023-07-24T03:42:36;5.85;;;3.85;;
20711;SDS011;10517;50.742;4.224;2023-07-24T03:45:01;3.85;;;3.60;;
20711;SDS011;10517;50.742;4.224;2023-07-24T03:47:27;3.30;;;3.10;;
20711;SDS011;10517;50.742;4.224;2023-07-24T03:49:52;4.07;;;3.72;;
20711;SDS011;10517;50.742;4.224;2023-07-24T03:52:18;5.22;;;3.33;;
20711;SDS011;10517;50.742;4.224;2023-07-24T03:54:44;3.08;;;2.97;;
20711;SDS011;10517;50.742;4.224;2023-07-24T03:57:09;3.95;;;3.67;;
20711;SDS011;10517;50.742;4.224;2023-07-24T03:59:35;4.72;;;3.33;;
20711;SDS011;10517;50.742;4.224;2023-07-24T04:02:01;3.13;;;2.92;;
20711;SDS011;10517;50.742;4.224;2023-07-24T04:04:27;3.72;;;3.53;;
20711;SDS011;10517;50.742;4.224;2023-07-24T04:06:52;3.13;;;2.92;;
20711;SDS011;10517;50.742;4.224;2023-07-24T04:09:18;2.92;;;2.72;;
20711;SDS011;10517;50.742;4.224;2023-07-24T04:11:43;3.33;;;3.03;;
20711;SDS011;10517;50.742;4.224;2023-07-24T04:14:09;3.30;;;3.10;;
20711;SDS011;10517;50.742;4.224;2023-07-24T04:16:35;3.47;;;3.28;;
20711;SDS011;10517;50.742;4.224;2023-07-24T04:19:01;4.15;;;3.03;;
20711;SDS011;10517;50.742;4.224;2023-07-24T04:21:27;2.95;;;2.65;;
20711;SDS011;10517;50.742;4.224;2023-07-24T04:23:52;3.58;;;2.63;;
20711;SDS011;10517;50.742;4.224;2023-07-24T04:26:18;3.42;;;3.10;;
20711;SDS011;10517;50.742;4.224;2023-07-24T04:28:43;7.60;;;2.80;;
20711;SDS011;10517;50.742;4.224;2023-07-24T04:31:09;3.55;;;2.92;;
20711;SDS011;10517;50.742;4.224;2023-07-24T04:33:35;3.20;;;3.00;;
20711;SDS011;10517;50.742;4.224;2023-07-24T04:36:00;3.28;;;3.00;;
20711;SDS011;10517;50.742;4.224;2023-07-24T04:38:26;3.15;;;2.95;;
20711;SDS011;10517;50.742;4.224;2023-07-24T04:40:51;4.10;;;3.70;;
20711;SDS011;10517;50.742;4.224;2023-07-24T04:43:17;7.00;;;3.58;;
20711;SDS011;10517;50.742;4.224;2023-07-24T04:45:42;6.18;;;3.60;;
20711;SDS011;10517;50.742;4.224;2023-07-24T04:48:08;3.17;;;2.88;;
20711;SDS011;10517;50.742;4.224;2023-07-24T04:50:33;4.35;;;3.85;;
20711;SDS011;10517;50.742;4.224;2023-07-24T04:52:59;3.70;;;3.40;;
20711;SDS011;10517;50.742;4.224;2023-07-24T04:55:25;3.67;;;3.30;;
20711;SDS011;10517;50.742;4.224;2023-07-24T04:57:50;3.65;;;3.45;;
20711;SDS011;10517;50.742;4.224;2023-07-24T05:00:16;4.03;;;3.72;;
20711;SDS011;10517;50.742;4.224;2023-07-24T05:02:42;4.00;;;3.70;;
20711;SDS011;10517;50.742;4.224;2023-07-24T05:05:07;5.18;;;4.25;;
20711;SDS011;10517;50.742;4.224;2023-07-24T05:07:33;4.60;;;4.20;;
20711;SDS011;10517;50.742;4.224;2023-07-24T05:09:59;3.95;;;3.75;;
20711;SDS011;10517;50.742;4.224;2023-07-24T05:12:25;4.50;;;4.20;;
20711;SDS011;10517;50.742;4.224;2023-07-24T05:14:50;4.60;;;4.40;;
20711;SDS011;10517;50.742;4.224;2023-07-24T05:17:16;4.75;;;4.45;;
20711;SDS011;10517;50.742;4.224;2023-07-24T05:19:42;4.03;;;3.83;;
20711;SDS011;10517;50.742;4.224;2023-07-24T05:22:07;3.90;;;3.70;;
20711;SDS011;10517;50.742;4.224;2023-07-24T05:24:35;4.50;;;4.20;;
20711;SDS011;10517;50.742;4.224;2023-07-24T05:27:04;5.20;;;4.80;;
20711;SDS011;10517;50.742;4.224;2023-07-24T05:29:30;4.97;;;4.68;;
20711;SDS011;10517;50.742;4.224;2023-07-24T05:31:55;4.72;;;4.50;;
20711;SDS011;10517;50.742;4.224;2023-07-24T05:34:21;4.60;;;4.35;;
20711;SDS011;10517;50.742;4.224;2023-07-24T05:36:46;5.57;;;4.72;;
20711;SDS011;10517;50.742;4.224;2023-07-24T05:39:12;7.75;;;6.15;;
20711;SDS011;10517;50.742;4.224;2023-07-24T05:41:37;5.15;;;4.85;;
20711;SDS011;10517;50.742;4.224;2023-07-24T05:44:03;4.53;;;4.07;;
20711;SDS011;10517;50.742;4.224;2023-07-24T05:46:29;4.63;;;4.32;;
20711;SDS011;10517;50.742;4.224;2023-07-24T05:48:54;4.40;;;4.10;;
20711;SDS011;10517;50.742;4.224;2023-07-24T05:51:21;4.07;;;3.80;;
20711;SDS011;10517;50.742;4.224;2023-07-24T05:53:47;5.22;;;3.85;;
20711;SDS011;10517;50.742;4.224;2023-07-24T05:56:12;5.18;;;4.03;;
20711;SDS011;10517;50.742;4.224;2023-07-24T05:58:38;4.28;;;3.88;;
20711;SDS011;10517;50.742;4.224;2023-07-24T06:01:03;3.65;;;3.45;;
20711;SDS011;10517;50.742;4.224;2023-07-24T06:03:29;4.07;;;3.80;;
20711;SDS011;10517;50.742;4.224;2023-07-24T06:05:55;4.18;;;3.88;;
20711;SDS011;10517;50.742;4.224;2023-07-24T06:08:21;3.38;;;3.17;;
20711;SDS011;10517;50.742;4.224;2023-07-24T06:10:48;3.83;;;3.53;;
20711;SDS011;10517;50.742;4.224;2023-07-24T06:13:17;3.58;;;3.30;;
20711;SDS011;10517;50.742;4.224;2023-07-24T06:15:43;3.67;;;3.17;;
20711;SDS011;10517;50.742;4.224;2023-07-24T06:18:09;4.85;;;3.22;;
20711;SDS011;10517;50.742;4.224;2023-07-24T06:20:35;3.28;;;2.97;;
20711;SDS011;10517;50.742;4.224;2023-07-24T06:23:01;5.07;;;3.17;;
20711;SDS011;10517;50.742;4.224;2023-07-24T06:25:28;3.10;;;2.80;;
20711;SDS011;10517;50.742;4.224;2023-07-24T06:27:55;6.75;;;3.83;;
20711;SDS011;10517;50.742;4.224;2023-07-24T06:30:21;4.93;;;3.85;;
20711;SDS011;10517;50.742;4.224;2023-07-24T06:32:47;4.20;;;3.58;;
20711;SDS011;10517;50.742;4.224;2023-07-24T06:35:12;5.00;;;3.63;;
20711;SDS011;10517;50.742;4.224;2023-07-24T06:37:38;4.80;;;3.92;;
20711;SDS011;10517;50.742;4.224;2023-07-24T06:40:04;4.20;;;3.40;;
20711;SDS011;10517;50.742;4.224;2023-07-24T06:42:31;3.70;;;3.33;;
20711;SDS011;10517;50.742;4.224;2023-07-24T06:44:57;3.80;;;3.50;;
20711;SDS011;10517;50.742;4.224;2023-07-24T06:47:22;3.45;;;3.13;;
20711;SDS011;10517;50.742;4.224;2023-07-24T06:49:48;3.15;;;2.95;;
20711;SDS011;10517;50.742;4.224;2023-07-24T06:52:13;4.35;;;2.53;;
20711;SDS011;10517;50.742;4.224;2023-07-24T06:54:39;5.97;;;3.25;;
20711;SDS011;10517;50.742;4.224;2023-07-24T06:57:04;2.60;;;2.40;;
20711;SDS011;10517;50.742;4.224;2023-07-24T06:59:30;2.97;;;2.78;;
20711;SDS011;10517;50.742;4.224;2023-07-24T07:01:55;3.10;;;2.90;;
20711;SDS011;10517;50.742;4.224;2023-07-24T07:04:21;3.03;;;2.83;;
20711;SDS011;10517;50.742;4.224;2023-07-24T07:06:47;2.63;;;2.30;;
20711;SDS011;10517;50.742;4.224;2023-07-24T07:09:12;4.55;;;2.80;;
20711;SDS011;10517;50.742;4.224;2023-07-24T07:11:38;4.07;;;2.63;;
20711;SDS011;10517;50.742;4.224;2023-07-24T07:14:04;4.88;;;2.65;;
20711;SDS011;10517;50.742;4.224;2023-07-24T07:16:29;4.30;;;3.00;;
20711;SDS011;10517;50.742;4.224;2023-07-24T07:18:55;2.85;;;2.50;;
20711;SDS011;10517;50.742;4.224;2023-07-24T07:21:21;5.20;;;2.63;;
20711;SDS011;10517;50.742;4.224;2023-07-24T07:23:46;2.70;;;2.50;;
20711;SDS011;10517;50.742;4.224;2023-07-24T07:26:12;3.47;;;2.65;;
20711;SDS011;10517;50.742;4.224;2023-07-24T07:28:37;4.28;;;2.90;;
20711;SDS011;10517;50.742;4.224;2023-07-24T07:31:03;3.35;;;2.67;;
20711;SDS011;10517;50.742;4.224;2023-07-24T07:33:29;3.40;;;2.50;;
20711;SDS011;10517;50.742;4.224;2023-07-24T07:35:54;2.60;;;2.40;;
20711;SDS011;10517;50.742;4.224;2023-07-24T07:38:20;3.00;;;2.80;;
20711;SDS011;10517;50.742;4.224;2023-07-24T07:40:47;3.10;;;2.78;;
20711;SDS011;10517;50.742;4.224;2023-07-24T07:43:13;3.30;;;2.60;;
20711;SDS011;10517;50.742;4.224;2023-07-24T07:45:38;5.45;;;2.67;;
20711;SDS011;10517;50.742;4.224;2023-07-24T07:48:04;3.10;;;2.90;;
20711;SDS011;10517;50.742;4.224;2023-07-24T07:50:30;2.80;;;2.60;;
20711;SDS011;10517;50.742;4.224;2023-07-24T07:52:56;3.38;;;3.17;;
20711;SDS011;10517;50.742;4.224;2023-07-24T07:55:21;3.40;;;3.20;;
20711;SDS011;10517;50.742;4.224;2023-07-24T07:57:47;3.55;;;3.08;;
20711;SDS011;10517;50.742;4.224;2023-07-24T08:00:12;3.25;;;3.05;;
20711;SDS011;10517;50.742;4.224;2023-07-24T08:02:38;4.25;;;3.83;;
20711;SDS011;10517;50.742;4.224;2023-07-24T08:05:05;3.83;;;3.53;;
20711;SDS011;10517;50.742;4.224;2023-07-24T08:07:32;3.47;;;3.17;;
20711;SDS011;10517;50.742;4.224;2023-07-24T08:09:58;3.30;;;2.70;;
20711;SDS011;10517;50.742;4.224;2023-07-24T08:12:23;3.03;;;2.83;;
20711;SDS011;10517;50.742;4.224;2023-07-24T08:14:49;2.40;;;2.30;;
20711;SDS011;10517;50.742;4.224;2023-07-24T08:17:15;3.40;;;2.55;;
20711;SDS011;10517;50.742;4.224;2023-07-24T08:19:40;2.42;;;2.28;;
20711;SDS011;10517;50.742;4.224;2023-07-24T08:22:06;4.55;;;2.20;;
20711;SDS011;10517;50.742;4.224;2023-07-24T08:24:35;2.50;;;2.30;;
20711;SDS011;10517;50.742;4.224;2023-07-24T08:27:01;2.63;;;2.42;;
20711;SDS011;10517;50.742;4.224;2023-07-24T08:29:27;4.03;;;2.70;;
20711;SDS011;10517;50.742;4.224;2023-07-24T08:31:52;3.40;;;2.70;;
20711;SDS011;10517;50.742;4.224;2023-07-24T08:34:18;2.72;;;2.53;;
20711;SDS011;10517;50.742;4.224;2023-07-24T08:36:44;3.30;;;2.90;;
20711;SDS011;10517;50.742;4.224;2023-07-24T08:39:09;6.10;;;3.30;;
20711;SDS011;10517;50.742;4.224;2023-07-24T08:41:36;3.15;;;2.85;;
20711;SDS011;10517;50.742;4.224;2023-07-24T08:44:02;4.85;;;3.30;;
20711;SDS011;10517;50.742;4.224;2023-07-24T08:46:30;3.10;;;2.72;;
20711;SDS011;10517;50.742;4.224;2023-07-24T08:49:00;3.65;;;3.35;;
20711;SDS011;10517;50.742;4.224;2023-07-24T08:51:26;4.72;;;3.58;;
20711;SDS011;10517;50.742;4.224;2023-07-24T08:53:52;5.97;;;3.67;;
20711;SDS011;10517;50.742;4.224;2023-07-24T08:56:18;6.93;;;3.58;;
20711;SDS011;10517;50.742;4.224;2023-07-24T08:58:44;4.82;;;3.80;;
20711;SDS011;10517;50.742;4.224;2023-07-24T09:01:10;6.43;;;4.20;;
20711;SDS011;10517;50.742;4.224;2023-07-24T09:03:36;4.32;;;3.90;;
20711;SDS011;10517;50.742;4.224;2023-07-24T09:06:02;4.10;;;3.70;;
20711;SDS011;10517;50.742;4.224;2023-07-24T09:08:32;4.47;;;4.13;;
20711;SDS011;10517;50.742;4.224;2023-07-24T09:10:59;4.85;;;4.13;;
20711;SDS011;10517;50.742;4.224;2023-07-24T09:13:25;5.43;;;4.57;;
20711;SDS011;10517;50.742;4.224;2023-07-24T09:15:51;4.90;;;4.50;;
20711;SDS011;10517;50.742;4.224;2023-07-24T09:18:16;5.68;;;4.75;;
20711;SDS011;10517;50.742;4.224;2023-07-24T09:20:43;4.60;;;4.20;;
20711;SDS011;10517;50.742;4.224;2023-07-24T09:23:09;5.35;;;4.85;;
20711;SDS011;10517;50.742;4.224;2023-07-24T09:25:39;6.00;;;5.50;;
20711;SDS011;10517;50.742;4.224;2023-07-24T09:28:11;5.63;;;5.10;;
20711;SDS011;10517;50.742;4.224;2023-07-24T09:30:40;5.03;;;4.65;;
20711;SDS011;10517;50.742;4.224;2023-07-24T09:33:08;4.93;;;4.53;;
20711;SDS011;10517;50.742;4.224;2023-07-24T09:35:34;4.78;;;4.38;;
20711;SDS011;10517;50.742;4.224;2023-07-24T09:38:07;6.13;;;4.72;;
20711;SDS011;10517;50.742;4.224;2023-07-24T09:43:21;7.90;;;4.80;;
20711;SDS011;10517;50.742;4.224;2023-07-24T09:45:52;5.32;;;4.68;;
20711;SDS011;10517;50.742;4.224;2023-07-24T09:48:19;4.53;;;4.13;;
20711;SDS011;10517;50.742;4.224;2023-07-24T09:50:47;8.65;;;4.53;;
20711;SDS011;10517;50.742;4.224;2023-07-24T09:53:33;4.43;;;4.03;;
20711;SDS011;10517;50.742;4.224;2023-07-24T09:56:03;5.07;;;4.18;;
20711;SDS011;10517;50.742;4.224;2023-07-24T09:58:32;5.15;;;4.03;;
20711;SDS011;10517;50.742;4.224;2023-07-24T10:00:59;4.22;;;3.83;;
20711;SDS011;10517;50.742;4.224;2023-07-24T10:03:31;4.35;;;4.05;;
20711;SDS011;10517;50.742;4.224;2023-07-24T10:06:00;5.22;;;3.97;;
20711;SDS011;10517;50.742;4.224;2023-07-24T10:08:26;3.95;;;3.65;;
20711;SDS011;10517;50.742;4.224;2023-07-24T10:10:52;6.80;;;3.08;;
20711;SDS011;10517;50.742;4.224;2023-07-24T10:13:19;4.47;;;3.63;;
20711;SDS011;10517;50.742;4.224;2023-07-24T10:15:46;4.85;;;3.17;;
20711;SDS011;10517;50.742;4.224;2023-07-24T10:18:14;4.13;;;3.25;;
20711;SDS011;10517;50.742;4.224;2023-07-24T10:20:41;3.63;;;3.33;;
20711;SDS011;10517;50.742;4.224;2023-07-24T10:23:10;5.85;;;3.70;;
20711;SDS011;10517;50.742;4.224;2023-07-24T10:25:40;3.88;;;3.53;;
20711;SDS011;10517;50.742;4.224;2023-07-24T10:28:09;3.88;;;3.58;;
20711;SDS011;10517;50.742;4.224;2023-07-24T10:30:40;4.47;;;4.07;;
20711;SDS011;10517;50.742;4.224;2023-07-24T10:35:43;4.47;;;4.07;;
20711;SDS011;10517;50.742;4.224;2023-07-24T10:38:13;4.70;;;4.40;;
20711;SDS011;10517;50.742;4.224;2023-07-24T10:40:41;5.35;;;4.70;;
20711;SDS011;10517;50.742;4.224;2023-07-24T10:43:08;4.63;;;4.22;;
20711;SDS011;10517;50.742;4.224;2023-07-24T10:45:42;5.05;;;4.70;;
20711;SDS011;10517;50.742;4.224;2023-07-24T10:48:15;4.00;;;3.70;;
20711;SDS011;10517;50.742;4.224;2023-07-24T10:50:49;4.20;;;3.90;;
20711;SDS011;10517;50.742;4.224;2023-07-24T10:53:17;4.63;;;4.13;;
20711;SDS011;10517;50.742;4.224;2023-07-24T10:55:44;3.95;;;3.72;;
20711;SDS011;10517;50.742;4.224;2023-07-24T10:58:12;3.85;;;3.65;;
20711;SDS011;10517;50.742;4.224;2023-07-24T11:00:41;4.55;;;4.15;;
20711;SDS011;10517;50.742;4.224;2023-07-24T11:03:11;3.83;;;3.63;;
20711;SDS011;10517;50.742;4.224;2023-07-24T11:05:40;4.15;;;3.85;;
20711;SDS011;10517;50.742;4.224;2023-07-24T11:08:14;4.85;;;4.55;;
20711;SDS011;10517;50.742;4.224;2023-07-24T11:10:44;5.22;;;4.93;;
20711;SDS011;10517;50.742;4.224;2023-07-24T11:13:10;4.10;;;3.90;;
20711;SDS011;10517;50.742;4.224;2023-07-24T11:15:36;5.32;;;4.70;;
20711;SDS011;10517;50.742;4.224;2023-07-24T11:18:02;4.78;;;3.30;;
20711;SDS011;10517;50.742;4.224;2023-07-24T11:20:27;4.15;;;3.80;;
20711;SDS011;10517;50.742;4.224;2023-07-24T11:22:53;4.53;;;4.22;;
20711;SDS011;10517;50.742;4.224;2023-07-24T11:25:22;4.40;;;4.10;;
20711;SDS011;10517;50.742;4.224;2023-07-24T11:27:48;4.60;;;4.28;;
20711;SDS011;10517;50.742;4.224;2023-07-24T11:30:18;3.78;;;3.47;;
20711;SDS011;10517;50.742;4.224;2023-07-24T11:32:45;5.13;;;4.47;;
20711;SDS011;10517;50.742;4.224;2023-07-24T11:35:11;6.03;;;4.22;;
20711;SDS011;10517;50.742;4.224;2023-07-24T11:37:37;5.65;;;5.15;;
20711;SDS011;10517;50.742;4.224;2023-07-24T11:40:04;4.38;;;4.00;;
20711;SDS011;10517;50.742;4.224;2023-07-24T11:42:44;5.50;;;5.10;;
20711;SDS011;10517;50.742;4.224;2023-07-24T11:45:10;5.85;;;5.25;;
20711;SDS011;10517;50.742;4.224;2023-07-24T11:50:11;6.50;;;6.00;;
20711;SDS011;10517;50.742;4.224;2023-07-24T11:52:38;5.82;;;5.25;;
20711;SDS011;10517;50.742;4.224;2023-07-24T11:55:11;5.65;;;5.10;;
20711;SDS011;10517;50.742;4.224;2023-07-24T11:57:38;4.60;;;4.28;;
20711;SDS011;10517;50.742;4.224;2023-07-24T12:00:04;5.82;;;5.43;;
20711;SDS011;10517;50.742;4.224;2023-07-24T12:02:31;5.57;;;5.28;;
20711;SDS011;10517;50.742;4.224;2023-07-24T12:04:58;6.15;;;4.50;;
20711;SDS011;10517;50.742;4.224;2023-07-24T12:07:31;5.30;;;4.95;;
20711;SDS011;10517;50.742;4.224;2023-07-24T12:09:59;5.35;;;4.95;;
20711;SDS011;10517;50.742;4.224;2023-07-24T12:15:05;5.30;;;4.93;;
20711;SDS011;10517;50.742;4.224;2023-07-24T12:17:31;5.03;;;4.63;;
20711;SDS011;10517;50.742;4.224;2023-07-24T12:19:57;5.35;;;4.85;;
20711;SDS011;10517;50.742;4.224;2023-07-24T12:22:22;5.07;;;4.70;;
20711;SDS011;10517;50.742;4.224;2023-07-24T12:24:48;5.60;;;5.30;;
20711;SDS011;10517;50.742;4.224;2023-07-24T12:27:13;5.03;;;4.72;;
20711;SDS011;10517;50.742;4.224;2023-07-24T12:29:39;5.00;;;4.70;;
20711;SDS011;10517;50.742;4.224;2023-07-24T12:32:05;5.00;;;4.60;;
20711;SDS011;10517;50.742;4.224;2023-07-24T12:34:31;4.47;;;4.18;;
20711;SDS011;10517;50.742;4.224;2023-07-24T12:36:56;4.50;;;4.13;;
20711;SDS011;10517;50.742;4.224;2023-07-24T12:39:22;4.47;;;4.05;;
20711;SDS011;10517;50.742;4.224;2023-07-24T12:41:48;4.85;;;4.40;;
20711;SDS011;10517;50.742;4.224;2023-07-24T12:44:13;4.28;;;3.97;;
20711;SDS011;10517;50.742;4.224;2023-07-24T12:46:39;4.30;;;4.00;;
20711;SDS011;10517;50.742;4.224;2023-07-24T12:49:04;4.35;;;4.05;;
20711;SDS011;10517;50.742;4.224;2023-07-24T12:51:30;5.25;;;4.38;;
20711;SDS011;10517;50.742;4.224;2023-07-24T12:53:55;5.10;;;4.70;;
20711;SDS011;10517;50.742;4.224;2023-07-24T12:56:21;4.30;;;3.80;;
20711;SDS011;10517;50.742;4.224;2023-07-24T12:58:47;5.13;;;4.57;;
20711;SDS011;10517;50.742;4.224;2023-07-24T13:01:12;5.20;;;4.72;;
20711;SDS011;10517;50.742;4.224;2023-07-24T13:03:38;4.53;;;4.15;;
20711;SDS011;10517;50.742;4.224;2023-07-24T13:06:03;4.63;;;4.28;;
20711;SDS011;10517;50.742;4.224;2023-07-24T13:08:29;4.88;;;4.47;;
20711;SDS011;10517;50.742;4.224;2023-07-24T13:10:55;5.28;;;4.78;;
20711;SDS011;10517;50.742;4.224;2023-07-24T13:13:20;4.03;;;3.72;;
20711;SDS011;10517;50.742;4.224;2023-07-24T13:15:46;3.83;;;3.53;;
20711;SDS011;10517;50.742;4.224;2023-07-24T13:18:11;3.55;;;3.35;;
20711;SDS011;10517;50.742;4.224;2023-07-24T13:20:39;4.18;;;3.53;;
20711;SDS011;10517;50.742;4.224;2023-07-24T13:23:05;3.92;;;3.53;;
20711;SDS011;10517;50.742;4.224;2023-07-24T13:25:31;4.63;;;3.45;;
20711;SDS011;10517;50.742;4.224;2023-07-24T13:27:56;4.73;;;3.90;;
20711;SDS011;10517;50.742;4.224;2023-07-24T13:30:22;4.65;;;4.18;;
20711;SDS011;10517;50.742;4.224;2023-07-24T13:32:48;4.60;;;4.20;;
20711;SDS011;10517;50.742;4.224;2023-07-24T13:35:13;6.82;;;4.50;;
20711;SDS011;10517;50.742;4.224;2023-07-24T13:37:40;4.00;;;3.70;;
20711;SDS011;10517;50.742;4.224;2023-07-24T13:40:06;4.90;;;4.15;;
20711;SDS011;10517;50.742;4.224;2023-07-24T13:42:32;4.80;;;4.30;;
20711;SDS011;10517;50.742;4.224;2023-07-24T13:44:58;5.40;;;4.93;;
20711;SDS011;10517;50.742;4.224;2023-07-24T13:47:23;4.90;;;4.60;;
20711;SDS011;10517;50.742;4.224;2023-07-24T13:49:49;6.93;;;4.78;;
20711;SDS011;10517;50.742;4.224;2023-07-24T13:52:14;6.20;;;5.80;;
20711;SDS011;10517;50.742;4.224;2023-07-24T13:54:40;5.70;;;4.75;;
20711;SDS011;10517;50.742;4.224;2023-07-24T13:57:06;5.32;;;4.50;;
20711;SDS011;10517;50.742;4.224;2023-07-24T13:59:34;5.32;;;5.03;;
20711;SDS011;10517;50.742;4.224;2023-07-24T14:02:00;5.10;;;4.70;;
20711;SDS011;10517;50.742;4.224;2023-07-24T14:04:26;5.63;;;5.20;;
20711;SDS011;10517;50.742;4.224;2023-07-24T14:06:52;5.43;;;4.95;;
20711;SDS011;10517;50.742;4.224;2023-07-24T14:09:17;6.15;;;5.75;;
20711;SDS011;10517;50.742;4.224;2023-07-24T14:11:43;5.80;;;5.40;;
20711;SDS011;10517;50.742;4.224;2023-07-24T14:14:09;5.43;;;5.03;;
20711;SDS011;10517;50.742;4.224;2023-07-24T14:16:34;5.38;;;5.07;;
20711;SDS011;10517;50.742;4.224;2023-07-24T14:19:00;5.80;;;5.30;;
20711;SDS011;10517;50.742;4.224;2023-07-24T14:21:25;5.80;;;5.40;;
20711;SDS011;10517;50.742;4.224;2023-07-24T14:23:51;5.95;;;5.63;;
20711;SDS011;10517;50.742;4.224;2023-07-24T14:26:16;6.70;;;5.38;;
20711;SDS011;10517;50.742;4.224;2023-07-24T14:28:42;5.70;;;5.40;;
20711;SDS011;10517;50.742;4.224;2023-07-24T14:31:08;8.10;;;5.70;;
20711;SDS011;10517;50.742;4.224;2023-07-24T14:33:33;5.95;;;5.65;;
20711;SDS011;10517;50.742;4.224;2023-07-24T14:35:59;5.88;;;5.55;;
20711;SDS011;10517;50.742;4.224;2023-07-24T14:38:24;5.95;;;5.50;;
20711;SDS011;10517;50.742;4.224;2023-07-24T14:40:50;5.65;;;4.75;;
20711;SDS011;10517;50.742;4.224;2023-07-24T14:43:18;5.45;;;4.97;;
20711;SDS011;10517;50.742;4.224;2023-07-24T14:45:47;5.10;;;4.90;;
20711;SDS011;10517;50.742;4.224;2023-07-24T14:48:13;6.03;;;5.57;;
20711;SDS011;10517;50.742;4.224;2023-07-24T14:50:39;5.78;;;5.47;;
20711;SDS011;10517;50.742;4.224;2023-07-24T14:53:05;5.78;;;5.28;;
20711;SDS011;10517;50.742;4.224;2023-07-24T14:55:31;5.13;;;4.82;;